Metelen UL

DE-0389 · North Rhine-Westphalia, 德国

2022年12月4日 07:002022年12月4日 19:00有效
时间
星期日
07:00
星期日
08:00
星期日
09:00
星期日
10:00
星期日
11:00
星期日
12:00
星期日
13:00
星期日
14:00
星期日
15:00
星期日
16:00
30%
星期日
17:00
30%
星期日
18:00
30%
代码
MVFR
MVFR
MVFR
MVFR
MVFR
MVFR
MVFR
MVFR
MVFR
IFR
IFR
IFR
天气
碎云
碎云
碎云
碎云
碎云
碎云
碎云
碎云
碎云
薄雾
天空晴朗
薄雾
天空晴朗
薄雾
天空晴朗
能见度
6 km
6 km
6 km
6 km
6 km
6 km
6 km
6 km
6 km
4 km
4 km
4 km
天花板
1.000 ft
1.000 ft
1.000 ft
1.000 ft
1.000 ft
1.000 ft
1.000 ft
1.000 ft
1.000 ft
900 ft
900 ft
900 ft
060°
060°
060°
060°
060°
060°
060°
060°
060°
060°
060°
060°
060°
060°
060°
060°
060°
060°
060°
060°
060°
060°
060°
060°
速度
9 kt
9 kt
9 kt
9 kt
9 kt
9 kt
9 kt
9 kt
9 kt
9 kt
9 kt
9 kt
阵风
温度/星期日
08:25
16:29

原版的

TAF EHVK 040514Z 0406/0418 06009KT 6000 OVC010
PROB30 0415/0418 4000 BR SCT007 OVC009

TAF Metelen UL

Metelen UL是,德国中的小机场。 视场标高为160 ft。 该领域的国际民航组织标志是DE-0389.

这份报告是针对2022年12月4日 06:14, 当地时间在Volkel Air Base进行的。 从2022年12月4日 07:00到2022年12月4日 19:00, 当地时间有效.

预报

  • 在星期日 07:00和19:00之间

    • 风: 风来自060°方向,速度为9 kt。
    • 能见度: 6 km
    • 乌云: 乌云密布在1.000 ft的高度.

  • 在星期日 16:00和19:00之间 ({一个机会)

    • 能见度: 4 km
    • 天气: 薄雾
    • 乌云: 疏云,零星散落的云朵在700 ft的高度 和 乌云密布在900 ft的高度.

白天

今天,太阳从08:21升起,在16:20降落。 这适用于Metelen UL,世界夏令时可能有所不同。 当地时间与世界标准时间之间的时差为+1 小时。 当前,没有夏令时有效。

我们和第三方通过cookies跟踪您在我们网站上的互联网行为。如果你继续,我们认为你同意我们的饼干政策